Time;durP1;ratioP1;P1;durP2;ratioP2;P2;SDS_P1;SDS_P2;PMS_P1;PMS_P2;Temp;Humidity;BMP_temperature;BMP_pressure;BME280_temperature;BME280_humidity;BME280_pressure;Samples;Min_cycle;Max_cycle;Signal;HPM_P1;HPM_P2
2021/12/31 00:01:24;;;;;;;0.90;0.60;;;;;;;11.86;81.15;98120.16;6246630;28;20285;-71
2021/12/31 00:04:26;;;;;;;2.40;0.70;;;;;;;11.87;81.01;98116.56;6241074;28;20230;-71
2021/12/31 00:07:28;;;;;;;1.13;0.50;;;;;;;11.86;81.41;98126.31;6254088;28;20576;-71
2021/12/31 00:10:31;;;;;;;3.20;0.80;;;;;;;11.77;81.11;98121.72;6254198;28;20793;-72
2021/12/31 00:13:32;;;;;;;2.43;0.70;;;;;;;11.75;81.48;98128.94;6252269;28;20238;-71
2021/12/31 00:16:34;;;;;;;0.70;0.70;;;;;;;11.75;81.22;98123.66;6251616;28;20237;-72
2021/12/31 00:19:43;;;;;;;0.90;0.70;;;;;;;11.88;80.20;98131.47;6252032;28;20241;-71
2021/12/31 00:23:02;;;;;;;0.93;0.60;;;;;;;11.89;80.23;98130.47;6252827;28;20249;-71
2021/12/31 00:26:04;;;;;;;0.70;0.70;;;;;;;11.88;79.90;98128.84;6253161;28;20602;-72
2021/12/31 00:29:06;;;;;;;1.03;0.60;;;;;;;11.85;79.91;98121.97;6253833;28;20227;-72
2021/12/31 00:32:08;;;;;;;0.70;0.70;;;;;;;11.87;79.73;98125.34;6252569;28;20548;-72
2021/12/31 00:35:10;;;;;;;0.50;0.50;;;;;;;11.88;79.50;98134.13;6218269;28;20235;-72
2021/12/31 00:38:13;;;;;;;1.30;0.60;;;;;;;11.87;79.24;98132.44;6236163;28;20226;-72
2021/12/31 00:41:15;;;;;;;1.00;0.60;;;;;;;11.85;79.31;98137.00;6252984;28;20220;-72
2021/12/31 00:44:17;;;;;;;2.40;0.63;;;;;;;11.78;79.46;98141.91;6254067;28;20433;-72
2021/12/31 00:47:19;;;;;;;0.80;0.60;;;;;;;11.77;79.20;98141.09;6247343;28;20318;-72
2021/12/31 00:50:25;;;;;;;0.70;0.70;;;;;;;11.77;79.28;98129.66;6233302;28;20223;-72
2021/12/31 00:53:27;;;;;;;0.70;0.57;;;;;;;11.76;78.67;98144.69;6248693;28;20229;-72
2021/12/31 00:56:29;;;;;;;0.90;0.73;;;;;;;11.76;78.54;98157.91;6257978;28;20302;-72
2021/12/31 00:59:32;;;;;;;1.00;0.60;;;;;;;11.72;78.93;98155.56;6257673;28;20226;-72
2021/12/31 01:02:34;;;;;;;0.50;0.50;;;;;;;11.70;78.77;98154.84;6253054;28;20602;-71
2021/12/31 01:05:37;;;;;;;0.93;0.70;;;;;;;11.72;78.96;98174.09;6233312;28;20585;-72
2021/12/31 01:08:39;;;;;;;0.60;0.50;;;;;;;11.64;79.07;98179.97;6253160;28;20284;-74
2021/12/31 01:11:46;;;;;;;1.23;0.50;;;;;;;11.63;79.21;98169.50;6251524;28;20233;-71
2021/12/31 01:14:58;;;;;;;0.60;0.60;;;;;;;11.58;79.34;98169.84;6253880;28;20732;-71
2021/12/31 01:21:03;;;;;;;2.40;0.60;;;;;;;11.54;79.14;98175.50;6251515;28;20831;-71
2021/12/31 01:24:06;;;;;;;1.10;0.50;;;;;;;11.51;79.30;98171.28;6251590;28;20359;-71
2021/12/31 01:27:09;;;;;;;0.87;0.70;;;;;;;11.45;79.94;98180.53;6251978;28;20295;-71
2021/12/31 01:30:13;;;;;;;0.70;0.70;;;;;;;11.37;79.69;98172.34;6250041;28;20210;-71
2021/12/31 01:33:16;;;;;;;0.60;0.60;;;;;;;11.29;80.06;98168.56;6245489;28;20233;-71
2021/12/31 01:36:18;;;;;;;0.93;0.80;;;;;;;11.20;80.20;98163.97;6231054;28;20239;-71
2021/12/31 01:39:20;;;;;;;2.03;0.83;;;;;;;11.14;80.04;98169.75;6251251;28;20209;-72
2021/12/31 01:42:33;;;;;;;3.70;0.70;;;;;;;11.04;80.78;98174.88;6201442;28;20726;-71
2021/12/31 01:45:43;;;;;;;0.93;0.80;;;;;;;10.99;80.75;98169.06;6248119;28;20233;-72
2021/12/31 01:52:00;;;;;;;0.83;0.70;;;;;;;10.95;80.98;98172.91;6227459;28;20730;-72
2021/12/31 01:55:04;;;;;;;0.70;0.70;;;;;;;10.94;80.86;98160.66;6243648;28;20704;-71
2021/12/31 01:58:07;;;;;;;0.67;0.60;;;;;;;10.93;81.09;98182.72;6252906;28;20229;-71
2021/12/31 02:01:10;;;;;;;0.80;0.80;;;;;;;10.87;81.01;98167.34;6251174;28;20720;-71
2021/12/31 02:04:13;;;;;;;0.90;0.77;;;;;;;10.84;80.98;98168.41;6242610;28;20593;-72
2021/12/31 02:07:15;;;;;;;0.70;0.70;;;;;;;10.82;81.07;98172.97;6252205;28;20257;-71
2021/12/31 02:10:17;;;;;;;0.90;0.80;;;;;;;10.89;80.71;98165.41;6251686;28;20228;-71
2021/12/31 02:13:20;;;;;;;1.37;0.70;;;;;;;10.94;80.20;98161.50;6251994;28;21049;-71
2021/12/31 02:16:23;;;;;;;0.70;0.70;;;;;;;10.93;80.43;98154.53;6253359;28;20241;-71
2021/12/31 02:19:29;;;;;;;0.60;0.50;;;;;;;10.77;80.82;98159.28;6256164;28;20822;-71
2021/12/31 02:22:34;;;;;;;1.00;0.90;;;;;;;10.72;81.08;98174.59;6255672;28;20257;-72
2021/12/31 02:25:37;;;;;;;2.57;0.70;;;;;;;10.78;80.90;98162.75;6255912;28;20241;-72
2021/12/31 02:28:40;;;;;;;1.37;0.70;;;;;;;10.82;80.81;98172.97;6254930;28;20780;-71
2021/12/31 02:31:42;;;;;;;0.60;0.60;;;;;;;10.81;80.49;98165.16;6254349;28;20328;-71
2021/12/31 02:34:46;;;;;;;0.83;0.80;;;;;;;10.77;80.88;98172.47;6223962;28;20730;-71
2021/12/31 02:37:48;;;;;;;0.60;0.60;;;;;;;10.67;80.82;98161.75;6231451;28;20285;-72
2021/12/31 02:40:50;;;;;;;0.87;0.50;;;;;;;10.72;80.88;98170.16;6252142;28;20721;-71
2021/12/31 02:43:52;;;;;;;0.50;0.50;;;;;;;10.67;80.84;98164.38;6256395;28;20236;-71
2021/12/31 02:46:54;;;;;;;0.60;0.57;;;;;;;10.51;81.34;98165.59;6252500;28;20784;-71
2021/12/31 02:49:56;;;;;;;0.50;0.50;;;;;;;10.30;81.85;98163.53;6230677;28;21018;-71
2021/12/31 02:52:58;;;;;;;0.57;0.53;;;;;;;10.35;82.04;98171.97;6242133;28;20327;-71
2021/12/31 02:56:04;;;;;;;0.80;0.60;;;;;;;10.42;81.75;98175.00;6255792;28;20287;-72
2021/12/31 02:59:08;;;;;;;0.50;0.50;;;;;;;10.46;81.82;98170.38;6237155;28;20224;-71
2021/12/31 03:02:10;;;;;;;1.40;0.80;;;;;;;10.42;82.01;98164.44;6254329;28;20387;-71
2021/12/31 03:05:13;;;;;;;1.17;0.70;;;;;;;10.42;81.75;98163.59;6233732;28;20317;-71
2021/12/31 03:08:17;;;;;;;1.27;0.70;;;;;;;10.31;81.49;98162.59;6254101;28;20224;-71
2021/12/31 03:11:21;;;;;;;0.50;0.50;;;;;;;10.21;81.79;98174.75;6254898;28;20234;-71
2021/12/31 03:14:25;;;;;;;2.00;0.70;;;;;;;10.06;82.11;98173.16;6253311;28;20747;-72
2021/12/31 03:17:30;;;;;;;2.37;0.63;;;;;;;10.02;82.62;98179.59;6254515;28;20229;-71
2021/12/31 03:20:41;;;;;;;0.60;0.60;;;;;;;9.94;82.73;98179.28;6255209;28;20224;-71
2021/12/31 03:23:44;;;;;;;0.90;0.70;;;;;;;9.92;83.11;98183.81;6259370;28;20650;-71
2021/12/31 03:26:46;;;;;;;1.30;0.70;;;;;;;10.00;83.49;98184.97;6255329;28;20638;-71
2021/12/31 03:29:48;;;;;;;0.93;0.83;;;;;;;10.07;83.01;98190.69;6256095;28;20228;-71
2021/12/31 03:32:50;;;;;;;1.17;0.70;;;;;;;10.13;83.17;98190.25;6251597;28;20258;-71
2021/12/31 03:35:52;;;;;;;0.70;0.70;;;;;;;10.04;82.83;98172.44;6218737;28;20221;-71
2021/12/31 03:38:53;;;;;;;1.03;0.80;;;;;;;10.11;82.53;98184.22;6243154;28;20224;-71
2021/12/31 03:41:55;;;;;;;1.00;0.90;;;;;;;10.17;82.99;98177.69;6252904;28;20338;-71
2021/12/31 03:44:58;;;;;;;1.10;0.90;;;;;;;10.12;82.58;98183.28;6253554;28;20230;-71
2021/12/31 03:48:00;;;;;;;1.27;0.90;;;;;;;10.09;82.47;98188.75;6243248;28;20346;-71
2021/12/31 03:51:02;;;;;;;1.47;0.90;;;;;;;9.97;82.29;98185.22;6235370;28;20212;-70
2021/12/31 03:54:04;;;;;;;0.90;0.90;;;;;;;9.92;82.65;98197.84;6253354;28;20205;-71
2021/12/31 03:57:06;;;;;;;1.03;0.97;;;;;;;10.22;81.88;98202.81;6253874;28;20242;-71
2021/12/31 04:00:10;;;;;;;1.90;1.00;;;;;;;10.34;81.25;98193.19;6254504;28;20438;-71
2021/12/31 04:03:12;;;;;;;1.13;1.10;;;;;;;10.27;81.63;98190.16;6248116;28;20248;-71
2021/12/31 04:06:14;;;;;;;1.43;0.90;;;;;;;10.23;81.83;98193.09;6246269;28;20230;-71
2021/12/31 04:09:16;;;;;;;0.83;0.83;;;;;;;10.17;81.68;98186.44;6252659;28;20275;-71
2021/12/31 04:12:18;;;;;;;1.27;0.80;;;;;;;10.02;81.93;98182.22;6252908;28;20208;-71
2021/12/31 04:15:20;;;;;;;1.13;1.00;;;;;;;9.94;82.11;98195.97;6254217;28;20219;-71
2021/12/31 04:18:25;;;;;;;1.23;0.93;;;;;;;9.89;82.79;98181.38;6254076;28;20232;-71
2021/12/31 04:21:30;;;;;;;2.27;1.33;;;;;;;10.04;81.79;98192.69;6253443;28;20229;-71
2021/12/31 04:27:46;;;;;;;0.90;0.90;;;;;;;10.00;82.19;98199.94;6254369;28;20235;-71
2021/12/31 04:30:48;;;;;;;0.80;0.60;;;;;;;10.00;82.45;98184.97;6251933;28;20220;-71
2021/12/31 04:33:50;;;;;;;0.77;0.77;;;;;;;9.97;82.12;98189.63;6230608;28;20244;-71
2021/12/31 04:36:52;;;;;;;1.17;0.90;;;;;;;10.14;82.23;98186.66;6219495;28;20768;-72
2021/12/31 04:39:54;;;;;;;5.70;0.90;;;;;;;10.29;81.41;98190.00;6239822;28;20236;-71
2021/12/31 04:42:56;;;;;;;3.27;0.80;;;;;;;10.32;81.17;98184.53;6253617;28;20247;-73
2021/12/31 04:45:58;;;;;;;0.60;0.60;;;;;;;10.17;81.56;98183.81;6252163;28;20236;-71
2021/12/31 04:49:00;;;;;;;2.10;1.00;;;;;;;10.11;81.60;98189.50;6233460;28;20237;-71
2021/12/31 04:52:02;;;;;;;1.10;1.00;;;;;;;10.09;82.52;98186.13;6228190;28;20224;-71
2021/12/31 04:55:05;;;;;;;1.13;0.83;;;;;;;10.00;82.44;98198.16;6252113;28;20229;-71
2021/12/31 04:58:07;;;;;;;1.00;1.00;;;;;;;9.93;82.43;98193.41;6253197;28;20709;-71
2021/12/31 05:01:09;;;;;;;0.87;0.87;;;;;;;9.89;82.86;98205.97;6252653;28;20604;-74
2021/12/31 05:04:11;;;;;;;1.33;1.23;;;;;;;9.87;82.49;98201.78;6251647;28;20260;-72
2021/12/31 05:07:14;;;;;;;1.30;1.10;;;;;;;9.77;82.70;98203.34;6252170;28;20790;-71
2021/12/31 05:10:18;;;;;;;1.90;1.30;;;;;;;9.56;83.28;98209.13;6254750;28;20296;-72
2021/12/31 05:13:20;;;;;;;1.63;1.53;;;;;;;9.61;83.48;98222.81;6251981;28;20311;-71
2021/12/31 05:16:22;;;;;;;2.37;1.37;;;;;;;9.68;83.72;98225.06;6252511;28;20318;-72
2021/12/31 05:19:25;;;;;;;1.80;1.43;;;;;;;9.71;83.35;98214.28;6253192;28;20232;-73
2021/12/31 05:22:27;;;;;;;2.27;1.90;;;;;;;9.68;84.08;98232.97;6252541;28;20228;-72
2021/12/31 05:25:29;;;;;;;1.90;1.80;;;;;;;9.74;83.47;98222.84;6252496;28;20236;-71
2021/12/31 05:28:32;;;;;;;3.77;1.90;;;;;;;9.73;83.66;98236.97;6251034;28;20234;-71
2021/12/31 05:31:34;;;;;;;2.20;2.03;;;;;;;9.59;83.36;98240.53;6250599;28;20314;-72
2021/12/31 05:34:36;;;;;;;3.67;2.20;;;;;;;9.77;83.56;98233.19;6227130;28;20748;-72
2021/12/31 05:37:38;;;;;;;2.00;1.90;;;;;;;9.87;82.71;98247.44;6231798;28;20572;-71
2021/12/31 05:40:40;;;;;;;1.97;1.83;;;;;;;9.88;82.95;98251.72;6230536;28;20270;-71
2021/12/31 05:43:42;;;;;;;2.20;2.00;;;;;;;10.21;81.41;98238.03;6251560;28;20250;-71
2021/12/31 05:46:48;;;;;;;1.80;1.70;;;;;;;10.30;81.28;98244.47;6251990;28;20308;-71
2021/12/31 05:49:52;;;;;;;1.53;1.43;;;;;;;10.27;80.87;98232.34;6227173;28;20233;-71
2021/12/31 05:52:56;;;;;;;1.60;1.50;;;;;;;10.24;80.84;98243.13;6251096;28;20233;-71
2021/12/31 05:55:58;;;;;;;2.13;1.27;;;;;;;10.18;81.32;98240.88;6257162;28;20233;-75
2021/12/31 05:59:00;;;;;;;1.40;1.30;;;;;;;10.30;80.61;98242.66;6255803;28;20236;-71
2021/12/31 06:02:02;;;;;;;1.27;1.00;;;;;;;10.40;79.98;98244.66;6257217;28;20239;-71
2021/12/31 06:05:05;;;;;;;0.93;0.90;;;;;;;10.33;80.54;98242.47;6242013;28;20223;-71
2021/12/31 06:08:07;;;;;;;1.57;1.13;;;;;;;10.30;80.74;98236.56;6250139;28;20710;-71
2021/12/31 06:11:09;;;;;;;1.20;1.10;;;;;;;10.31;80.80;98248.78;6256851;28;20239;-72
2021/12/31 06:14:12;;;;;;;1.10;0.87;;;;;;;10.27;80.59;98245.53;6256069;28;20738;-71
2021/12/31 06:17:14;;;;;;;1.20;1.03;;;;;;;10.29;80.83;98240.97;6254764;28;20229;-71
2021/12/31 06:20:16;;;;;;;2.43;1.43;;;;;;;10.37;80.50;98248.38;6257069;28;20234;-71
2021/12/31 06:23:17;;;;;;;1.63;1.10;;;;;;;10.18;81.31;98243.53;6256135;28;20232;-71
2021/12/31 06:26:19;;;;;;;1.83;1.50;;;;;;;10.23;80.86;98244.06;6255295;28;20717;-71
2021/12/31 06:29:21;;;;;;;1.70;1.40;;;;;;;10.27;81.03;98242.91;6255772;28;20286;-71
2021/12/31 06:32:23;;;;;;;1.33;1.23;;;;;;;10.25;80.77;98241.31;6255589;28;20220;-71
2021/12/31 06:35:26;;;;;;;2.43;1.30;;;;;;;10.24;80.74;98252.81;6207114;28;20332;-71
2021/12/31 06:38:28;;;;;;;1.40;1.17;;;;;;;10.27;80.68;98256.09;6230906;28;20295;-71
2021/12/31 06:41:30;;;;;;;1.43;1.07;;;;;;;10.43;79.94;98258.50;6251470;28;20225;-71
2021/12/31 06:44:32;;;;;;;1.77;0.80;;;;;;;10.59;78.83;98258.25;6255673;28;20318;-71
2021/12/31 06:47:34;;;;;;;0.80;0.67;;;;;;;10.63;78.57;98259.72;6246877;28;20713;-71
2021/12/31 06:50:36;;;;;;;0.60;0.60;;;;;;;10.55;79.15;98260.28;6231345;28;20331;-71
2021/12/31 06:53:39;;;;;;;0.60;0.60;;;;;;;10.57;78.70;98270.72;6238161;28;20232;-71
2021/12/31 06:56:41;;;;;;;0.73;0.70;;;;;;;10.52;78.64;98263.13;6253471;28;20229;-71
2021/12/31 06:59:43;;;;;;;0.70;0.70;;;;;;;10.60;78.70;98262.56;6254655;28;20231;-71
2021/12/31 07:02:45;;;;;;;1.10;0.73;;;;;;;10.66;78.13;98268.28;6253568;28;20244;-71
2021/12/31 07:05:47;;;;;;;1.13;0.90;;;;;;;10.66;78.33;98275.34;6252466;28;20647;-71
2021/12/31 07:08:49;;;;;;;1.30;1.20;;;;;;;10.82;77.53;98267.16;6254614;28;20235;-71
2021/12/31 07:11:51;;;;;;;1.43;1.10;;;;;;;10.84;77.28;98278.47;6254156;28;20237;-71
2021/12/31 07:14:53;;;;;;;1.87;1.17;;;;;;;10.91;77.44;98293.75;6224472;28;20262;-71
2021/12/31 07:17:55;;;;;;;1.90;1.00;;;;;;;10.89;77.62;98289.53;6219282;28;20256;-71
2021/12/31 07:20:57;;;;;;;1.23;1.10;;;;;;;10.80;78.06;98298.94;6252591;28;20236;-71
2021/12/31 07:23:59;;;;;;;1.30;1.20;;;;;;;10.90;77.68;98299.97;6255012;28;20246;-71
2021/12/31 07:27:01;;;;;;;0.80;0.80;;;;;;;10.84;78.31;98295.16;6254179;28;20296;-71
2021/12/31 07:30:05;;;;;;;0.90;0.90;;;;;;;10.88;78.00;98316.91;6254041;28;20307;-72
2021/12/31 07:33:17;;;;;;;0.70;0.70;;;;;;;10.78;78.32;98311.41;6249194;28;20213;-71
2021/12/31 07:36:19;;;;;;;1.27;0.87;;;;;;;10.73;78.46;98332.03;6229433;28;20228;-71
2021/12/31 07:39:24;;;;;;;2.00;0.83;;;;;;;10.74;78.14;98317.88;6243541;28;20697;-71
2021/12/31 07:42:26;;;;;;;0.80;0.70;;;;;;;10.78;78.05;98329.91;6253766;28;20799;-71
2021/12/31 07:45:28;;;;;;;0.77;0.50;;;;;;;10.75;78.10;98340.69;6245705;28;20592;-72
2021/12/31 07:48:30;;;;;;;1.30;0.90;;;;;;;10.89;77.36;98332.63;6217831;28;20233;-72
2021/12/31 07:51:32;;;;;;;1.50;0.70;;;;;;;10.88;77.55;98333.56;6228117;28;20241;-71
2021/12/31 07:54:34;;;;;;;1.07;0.60;;;;;;;10.76;78.18;98336.25;6229283;28;20596;-71
2021/12/31 07:57:37;;;;;;;2.50;0.60;;;;;;;10.66;78.65;98341.34;6248754;28;20323;-71
2021/12/31 08:00:38;;;;;;;1.37;0.60;;;;;;;10.67;78.53;98340.41;6254141;28;20251;-71
2021/12/31 08:03:41;;;;;;;0.60;0.50;;;;;;;10.64;78.87;98337.97;6254542;28;20323;-71
2021/12/31 08:06:43;;;;;;;0.90;0.63;;;;;;;10.63;79.06;98331.00;6252583;28;20232;-72
2021/12/31 08:09:44;;;;;;;0.77;0.60;;;;;;;10.81;79.10;98334.13;6252499;28;20237;-71
2021/12/31 08:12:47;;;;;;;0.60;0.60;;;;;;;11.00;78.88;98331.84;6251429;28;20229;-71
2021/12/31 08:15:49;;;;;;;0.63;0.47;;;;;;;11.35;76.93;98324.03;6247365;28;20267;-71
2021/12/31 08:18:51;;;;;;;1.43;0.80;;;;;;;11.67;75.73;98329.59;6253613;28;20329;-71
2021/12/31 08:21:53;;;;;;;1.50;0.40;;;;;;;11.83;74.60;98319.59;6251104;28;20233;-71
2021/12/31 08:24:55;;;;;;;1.23;0.57;;;;;;;11.97;74.84;98324.69;6252480;28;20248;-73
2021/12/31 08:27:57;;;;;;;0.83;0.60;;;;;;;12.05;74.68;98327.59;6252464;28;20238;-72
2021/12/31 08:30:59;;;;;;;1.40;0.50;;;;;;;12.09;74.67;98328.19;6253349;28;20236;-72
2021/12/31 08:34:01;;;;;;;1.10;0.70;;;;;;;12.10;74.85;98329.88;6240548;28;20240;-71
2021/12/31 08:37:03;;;;;;;1.77;0.63;;;;;;;12.17;74.46;98315.25;6233048;28;20327;-72
2021/12/31 08:40:05;;;;;;;2.27;0.50;;;;;;;12.24;74.15;98310.31;6251383;28;20244;-71
2021/12/31 08:43:07;;;;;;;0.97;0.50;;;;;;;12.28;74.21;98309.94;6251304;28;20380;-72
2021/12/31 08:46:09;;;;;;;1.67;0.50;;;;;;;12.26;74.63;98311.03;6242911;28;20295;-72
2021/12/31 08:49:12;;;;;;;0.60;0.60;;;;;;;12.26;74.69;98317.19;6226592;28;20241;-72
2021/12/31 08:52:14;;;;;;;0.90;0.60;;;;;;;12.26;73.86;98308.41;6245118;28;20234;-72
2021/12/31 08:55:17;;;;;;;1.03;0.50;;;;;;;12.20;74.61;98317.63;6251443;28;20236;-71
2021/12/31 08:58:19;;;;;;;0.80;0.80;;;;;;;12.14;74.31;98313.66;6250335;28;20230;-72
2021/12/31 09:01:21;;;;;;;1.13;0.63;;;;;;;12.13;73.69;98308.47;6253329;28;20238;-72
2021/12/31 09:04:23;;;;;;;0.60;0.53;;;;;;;12.12;73.71;98315.56;6251441;28;20307;-72
2021/12/31 09:07:26;;;;;;;1.43;0.40;;;;;;;12.15;73.22;98309.22;6253293;28;20315;-72
2021/12/31 09:10:28;;;;;;;1.43;0.40;;;;;;;12.19;73.10;98303.56;6251935;28;20230;-72
2021/12/31 09:13:32;;;;;;;0.67;0.50;;;;;;;12.25;72.80;98296.97;6252607;28;20721;-72
2021/12/31 09:16:34;;;;;;;0.70;0.60;;;;;;;12.28;72.80;98298.53;6236736;28;20727;-72
2021/12/31 09:19:36;;;;;;;0.40;0.40;;;;;;;12.36;72.71;98291.69;6231718;28;20633;-72
2021/12/31 09:22:38;;;;;;;0.87;0.60;;;;;;;12.33;72.03;98286.63;6213458;28;20863;-72
2021/12/31 09:25:40;;;;;;;0.90;0.60;;;;;;;12.41;72.23;98281.56;6215013;28;20215;-72
2021/12/31 09:28:44;;;;;;;0.30;0.30;;;;;;;12.48;71.56;98288.06;6217108;28;20227;-72
2021/12/31 09:31:46;;;;;;;0.40;0.40;;;;;;;12.52;71.00;98288.66;6218341;28;20232;-72
2021/12/31 09:34:48;;;;;;;0.50;0.50;;;;;;;12.59;70.95;98284.56;6213597;28;20224;-72
2021/12/31 09:37:50;;;;;;;0.80;0.60;;;;;;;12.69;70.46;98274.94;6218025;28;20764;-72
2021/12/31 09:40:53;;;;;;;0.60;0.60;;;;;;;12.80;69.56;98274.94;6217157;28;20265;-72
2021/12/31 09:43:56;;;;;;;0.50;0.50;;;;;;;12.88;69.79;98291.03;6222387;28;20259;-72
2021/12/31 09:46:57;;;;;;;0.87;0.60;;;;;;;13.01;69.57;98290.91;6225087;28;20226;-72
2021/12/31 09:49:59;;;;;;;1.73;0.60;;;;;;;13.07;68.24;98293.09;6222564;28;20751;-72
2021/12/31 09:53:02;;;;;;;1.23;0.60;;;;;;;13.18;68.25;98295.72;6220490;28;20211;-72
2021/12/31 09:56:06;;;;;;;2.70;0.60;;;;;;;13.28;67.91;98287.84;6220244;28;20231;-71
2021/12/31 09:59:09;;;;;;;0.90;0.50;;;;;;;13.23;68.21;98274.16;6215632;28;20739;-72
2021/12/31 10:02:11;;;;;;;1.13;0.60;;;;;;;13.20;68.18;98272.59;6221302;28;20725;-72
2021/12/31 10:05:13;;;;;;;1.17;0.60;;;;;;;13.26;67.42;98281.88;6207999;28;20232;-72
2021/12/31 10:08:20;;;;;;;0.50;0.50;;;;;;;13.34;68.15;98279.44;6220375;28;20743;-72
2021/12/31 10:11:24;;;;;;;1.20;0.43;;;;;;;13.31;67.32;98277.00;6241220;28;20647;-72
2021/12/31 10:14:34;;;;;;;0.50;0.50;;;;;;;13.36;67.58;98266.06;6243576;28;20726;-72
2021/12/31 10:17:36;;;;;;;1.57;0.50;;;;;;;13.43;67.73;98262.75;6243513;28;20236;-72
2021/12/31 10:20:51;;;;;;;0.50;0.50;;;;;;;13.38;67.51;98267.59;6241286;28;20291;-72
2021/12/31 10:23:53;;;;;;;0.50;0.50;;;;;;;13.38;67.13;98251.66;6232895;28;20412;-73
2021/12/31 10:27:19;;;;;;;0.60;0.60;;;;;;;13.36;67.00;98258.94;6228944;28;20714;-72
2021/12/31 10:30:22;;;;;;;0.50;0.50;;;;;;;13.37;67.55;98254.47;6253568;28;20231;-73
2021/12/31 10:33:45;;;;;;;0.40;0.40;;;;;;;13.37;65.95;98254.47;6238716;28;20692;-72
2021/12/31 10:36:47;;;;;;;0.40;0.40;;;;;;;13.40;65.59;98263.00;6207604;28;20233;-72
2021/12/31 10:39:58;;;;;;;0.50;0.50;;;;;;;13.46;66.41;98253.72;6227967;28;20301;-71
2021/12/31 10:43:16;;;;;;;1.07;0.67;;;;;;;13.50;66.03;98248.00;6234704;28;20228;-72
2021/12/31 10:46:19;;;;;;;0.90;0.60;;;;;;;13.46;66.60;98245.75;6222345;28;20777;-72
2021/12/31 10:49:21;;;;;;;0.40;0.40;;;;;;;13.46;66.51;98238.66;6221220;28;20242;-72
2021/12/31 10:52:33;;;;;;;0.60;0.60;;;;;;;13.49;66.05;98242.84;6217822;28;20618;-72
2021/12/31 10:55:40;;;;;;;0.77;0.50;;;;;;;13.55;66.35;98247.66;6218319;28;20232;-72
2021/12/31 10:58:44;;;;;;;0.40;0.40;;;;;;;13.54;66.18;98235.34;6214572;28;20722;-72
2021/12/31 11:01:47;;;;;;;0.40;0.40;;;;;;;13.54;65.95;98236.19;6219583;28;20228;-72
2021/12/31 11:04:50;;;;;;;0.60;0.60;;;;;;;13.51;65.91;98227.66;6221653;28;20805;-72
2021/12/31 11:07:53;;;;;;;2.13;0.50;;;;;;;13.59;64.54;98225.19;6214582;28;20768;-72
2021/12/31 11:11:06;;;;;;;0.50;0.50;;;;;;;13.73;64.01;98227.53;6209549;28;20663;-72
2021/12/31 11:14:09;;;;;;;0.77;0.30;;;;;;;13.75;62.62;98225.59;6234260;28;20586;-72
2021/12/31 11:17:11;;;;;;;0.80;0.47;;;;;;;13.78;62.77;98221.81;6222376;28;20237;-72
2021/12/31 11:20:20;;;;;;;0.50;0.30;;;;;;;13.86;63.00;98208.78;6218646;28;20252;-72
2021/12/31 11:23:27;;;;;;;0.40;0.40;;;;;;;13.86;62.59;98206.97;6222430;28;20250;-72
2021/12/31 11:26:29;;;;;;;0.30;0.30;;;;;;;13.89;62.56;98203.19;6214888;28;20229;-72
2021/12/31 11:29:37;;;;;;;0.60;0.40;;;;;;;13.94;62.54;98196.53;6219622;28;20232;-72
2021/12/31 11:32:48;;;;;;;0.47;0.30;;;;;;;13.97;62.29;98201.53;6232883;28;20223;-72
2021/12/31 11:35:58;;;;;;;1.40;0.50;;;;;;;14.01;62.02;98191.53;6228738;28;20752;-72
2021/12/31 11:39:13;;;;;;;0.50;0.30;;;;;;;14.06;62.30;98210.56;6252928;28;20241;-72
2021/12/31 11:42:23;;;;;;;0.50;0.50;;;;;;;14.12;61.71;98196.75;6215921;28;21000;-72
2021/12/31 11:45:25;;;;;;;0.93;0.50;;;;;;;14.16;61.54;98205.31;6212627;28;20820;-71
2021/12/31 11:48:51;;;;;;;0.47;0.40;;;;;;;14.21;61.22;98187.97;6208664;28;20618;-71
2021/12/31 11:52:01;;;;;;;0.40;0.30;;;;;;;14.27;61.01;98189.28;6210506;28;20240;-72
2021/12/31 11:55:18;;;;;;;0.87;0.83;;;;;;;14.31;59.58;98180.06;6219341;28;20584;-72
2021/12/31 11:58:38;;;;;;;1.50;0.70;;;;;;;14.39;60.30;98170.47;6214226;28;20255;-72
2021/12/31 12:02:00;;;;;;;1.40;0.63;;;;;;;14.47;58.91;98171.63;6224306;28;20314;-76
2021/12/31 12:05:11;;;;;;;11.57;6.83;;;;;;;14.62;59.83;98172.91;6235411;28;20234;-71
2021/12/31 12:08:31;;;;;;;1.70;1.30;;;;;;;14.72;59.36;98150.72;6221548;28;20837;-72
2021/12/31 12:12:05;;;;;;;0.50;0.50;;;;;;;14.87;58.54;98151.16;6214971;28;20216;-72
2021/12/31 12:15:19;;;;;;;0.77;0.50;;;;;;;14.94;58.15;98140.81;6206557;28;20671;-72
2021/12/31 12:18:51;;;;;;;0.40;0.40;;;;;;;15.08;57.72;98135.91;6227181;28;20228;-72
2021/12/31 12:21:53;;;;;;;1.17;0.50;;;;;;;15.08;58.94;98125.25;6224464;28;20244;-72
2021/12/31 12:24:58;;;;;;;0.47;0.40;;;;;;;15.36;58.67;98130.72;6210689;28;20235;-72
2021/12/31 12:28:09;;;;;;;0.80;0.53;;;;;;;15.55;57.33;98125.41;6208879;28;20251;-72
2021/12/31 12:31:17;;;;;;;1.80;0.40;;;;;;;15.74;57.06;98129.84;6214666;28;20235;-72
2021/12/31 12:34:28;;;;;;;0.33;0.33;;;;;;;15.78;56.94;98134.69;6228032;28;20700;-72
2021/12/31 12:37:31;;;;;;;0.53;0.50;;;;;;;15.93;55.36;98124.44;6221177;28;20243;-72
2021/12/31 12:41:02;;;;;;;0.93;0.40;;;;;;;15.96;56.56;98116.19;6210766;28;20622;-71
2021/12/31 12:44:09;;;;;;;0.53;0.50;;;;;;;16.23;56.25;98113.53;6211050;28;20315;-71
2021/12/31 12:47:10;;;;;;;0.90;0.50;;;;;;;16.41;54.54;98110.91;6209250;28;20322;-72
2021/12/31 12:50:15;;;;;;;0.40;0.30;;;;;;;16.57;54.41;98115.56;6226167;28;20230;-71
2021/12/31 12:53:25;;;;;;;1.00;0.67;;;;;;;17.22;52.94;98118.91;6219856;28;20600;-71
2021/12/31 12:56:27;;;;;;;0.77;0.50;;;;;;;17.95;50.20;98117.63;6212826;28;20223;-72
2021/12/31 12:59:37;;;;;;;0.40;0.40;;;;;;;18.47;48.06;98122.03;6212065;28;20235;-72
2021/12/31 13:02:41;;;;;;;0.60;0.60;;;;;;;17.62;50.06;98119.25;6212093;28;20644;-72
2021/12/31 13:05:44;;;;;;;0.43;0.43;;;;;;;16.64;53.22;98130.00;6211588;28;20236;-71
2021/12/31 13:08:46;;;;;;;1.63;0.53;;;;;;;15.74;55.75;98137.81;6214031;28;20220;-72
2021/12/31 13:11:54;;;;;;;0.63;0.60;;;;;;;15.13;57.52;98127.50;6214273;28;20246;-71
2021/12/31 13:14:58;;;;;;;0.53;0.50;;;;;;;14.75;58.71;98125.69;6211261;28;20227;-72
2021/12/31 13:18:07;;;;;;;0.40;0.40;;;;;;;14.42;59.68;98126.88;6213541;28;20232;-72
2021/12/31 13:21:12;;;;;;;2.10;0.60;;;;;;;14.17;60.80;98130.84;6216234;28;20240;-71
2021/12/31 13:24:20;;;;;;;1.40;0.60;;;;;;;13.90;61.69;98125.25;6220213;28;20207;-71
2021/12/31 13:27:22;;;;;;;0.43;0.40;;;;;;;13.64;62.38;98122.22;6236040;28;20302;-71
2021/12/31 13:30:25;;;;;;;0.40;0.40;;;;;;;13.41;63.07;98121.50;6221246;28;20234;-72
2021/12/31 13:33:30;;;;;;;1.00;0.57;;;;;;;13.19;64.16;98124.28;6224359;28;20234;-71
2021/12/31 13:36:33;;;;;;;1.07;0.70;;;;;;;13.03;64.95;98129.16;6243434;28;20232;-71
2021/12/31 13:39:39;;;;;;;0.53;0.53;;;;;;;12.91;65.18;98121.25;6217512;28;20235;-71
2021/12/31 13:42:44;;;;;;;2.20;0.40;;;;;;;12.73;65.84;98121.94;6215412;28;20243;-71
2021/12/31 13:45:46;;;;;;;0.97;0.60;;;;;;;12.57;66.46;98117.06;6215875;28;20240;-71
2021/12/31 13:48:48;;;;;;;0.50;0.50;;;;;;;12.46;66.78;98112.63;6220154;28;20300;-72
2021/12/31 13:51:50;;;;;;;0.80;0.80;;;;;;;12.33;67.83;98113.75;6229940;28;20276;-71
2021/12/31 13:55:01;;;;;;;2.20;1.43;;;;;;;12.15;68.32;98113.41;6250598;28;20600;-71
2021/12/31 13:58:06;;;;;;;2.97;1.90;;;;;;;11.97;68.53;98109.59;6219215;28;20702;-71
2021/12/31 14:01:12;;;;;;;9.00;5.50;;;;;;;11.85;69.16;98100.81;6204714;28;20232;-71
2021/12/31 14:04:17;;;;;;;25.40;14.77;;;;;;;11.68;69.62;98103.91;6226823;28;20235;-74
2021/12/31 14:07:32;;;;;;;5.70;3.60;;;;;;;11.57;70.00;98114.47;6211482;28;20294;-72
2021/12/31 14:10:34;;;;;;;6.37;5.07;;;;;;;11.32;70.86;98105.78;6210505;28;20282;-71
2021/12/31 14:13:43;;;;;;;2.23;1.37;;;;;;;11.08;71.12;98123.47;6219272;28;20242;-71
2021/12/31 14:16:45;;;;;;;0.77;0.73;;;;;;;10.87;71.85;98125.09;6217660;28;20226;-71
2021/12/31 14:19:47;;;;;;;1.50;1.40;;;;;;;10.66;72.96;98124.91;6223895;28;20234;-71
2021/12/31 14:22:51;;;;;;;1.50;1.40;;;;;;;10.38;73.58;98128.72;6227858;28;20230;-71
2021/12/31 14:25:53;;;;;;;1.63;1.20;;;;;;;10.26;74.19;98130.44;6214946;28;20238;-71
2021/12/31 14:28:55;;;;;;;1.20;1.10;;;;;;;10.13;74.82;98140.13;6215318;28;20599;-72
2021/12/31 14:32:04;;;;;;;1.00;0.87;;;;;;;9.98;74.94;98144.69;6239365;28;20235;-71
2021/12/31 14:35:09;;;;;;;1.97;0.77;;;;;;;9.75;75.37;98148.09;6226005;28;20248;-71
2021/12/31 14:38:17;;;;;;;1.63;1.27;;;;;;;9.53;76.01;98153.16;6217152;28;20234;-75